sensor_id;sensor_type;location;lat;lon;timestamp;temperature;humidity
7494;DHT22;3788;49.902;8.590;2023-03-13T00:01:48;10.20;99.90
7494;DHT22;3788;49.902;8.590;2023-03-13T00:04:15;10.20;99.90
7494;DHT22;3788;49.902;8.590;2023-03-13T00:06:42;10.20;99.90
7494;DHT22;3788;49.902;8.590;2023-03-13T00:09:12;10.30;99.90
7494;DHT22;3788;49.902;8.590;2023-03-13T00:11:39;10.30;99.90
7494;DHT22;3788;49.902;8.590;2023-03-13T00:14:07;10.30;99.90
7494;DHT22;3788;49.902;8.590;2023-03-13T00:16:34;10.30;99.90
7494;DHT22;3788;49.902;8.590;2023-03-13T00:19:02;10.30;99.90
7494;DHT22;3788;49.902;8.590;2023-03-13T00:21:29;10.30;99.90
7494;DHT22;3788;49.902;8.590;2023-03-13T00:23:57;10.40;99.90
7494;DHT22;3788;49.902;8.590;2023-03-13T00:26:26;10.40;99.90
7494;DHT22;3788;49.902;8.590;2023-03-13T00:28:53;10.40;99.90
7494;DHT22;3788;49.902;8.590;2023-03-13T00:31:22;10.40;99.90
7494;DHT22;3788;49.902;8.590;2023-03-13T00:33:50;10.50;99.90
7494;DHT22;3788;49.902;8.590;2023-03-13T00:36:19;10.50;99.90
7494;DHT22;3788;49.902;8.590;2023-03-13T00:38:46;10.50;99.90
7494;DHT22;3788;49.902;8.590;2023-03-13T00:41:15;10.50;99.90
7494;DHT22;3788;49.902;8.590;2023-03-13T00:43:44;10.60;99.90
7494;DHT22;3788;49.902;8.590;2023-03-13T00:46:12;10.60;99.90
7494;DHT22;3788;49.902;8.590;2023-03-13T00:48:39;10.60;99.80
7494;DHT22;3788;49.902;8.590;2023-03-13T00:51:06;10.60;99.80
7494;DHT22;3788;49.902;8.590;2023-03-13T00:53:33;10.60;99.80
7494;DHT22;3788;49.902;8.590;2023-03-13T00:56:02;10.60;99.80
7494;DHT22;3788;49.902;8.590;2023-03-13T00:58:30;10.60;99.70
7494;DHT22;3788;49.902;8.590;2023-03-13T01:01:07;10.70;99.80
7494;DHT22;3788;49.902;8.590;2023-03-13T01:03:35;10.60;99.70
7494;DHT22;3788;49.902;8.590;2023-03-13T01:06:04;10.60;99.70
7494;DHT22;3788;49.902;8.590;2023-03-13T01:08:31;10.70;99.70
7494;DHT22;3788;49.902;8.590;2023-03-13T01:10:59;10.70;99.70
7494;DHT22;3788;49.902;8.590;2023-03-13T01:13:27;10.70;99.70
7494;DHT22;3788;49.902;8.590;2023-03-13T01:15:54;10.70;99.70
7494;DHT22;3788;49.902;8.590;2023-03-13T01:18:22;10.70;99.60
7494;DHT22;3788;49.902;8.590;2023-03-13T01:20:49;10.70;99.60
7494;DHT22;3788;49.902;8.590;2023-03-13T01:23:15;10.70;99.60
7494;DHT22;3788;49.902;8.590;2023-03-13T01:25:42;10.80;99.60
7494;DHT22;3788;49.902;8.590;2023-03-13T01:28:08;10.80;99.50
7494;DHT22;3788;49.902;8.590;2023-03-13T01:30:35;10.80;99.60
7494;DHT22;3788;49.902;8.590;2023-03-13T01:33:02;10.80;99.50
7494;DHT22;3788;49.902;8.590;2023-03-13T01:35:30;10.80;99.60
7494;DHT22;3788;49.902;8.590;2023-03-13T01:37:57;10.80;99.60
7494;DHT22;3788;49.902;8.590;2023-03-13T01:40:23;10.80;99.60
7494;DHT22;3788;49.902;8.590;2023-03-13T01:42:54;10.80;99.60
7494;DHT22;3788;49.902;8.590;2023-03-13T01:45:57;10.80;99.60
7494;DHT22;3788;49.902;8.590;2023-03-13T01:48:28;10.80;99.60
7494;DHT22;3788;49.902;8.590;2023-03-13T01:51:00;10.80;99.60
7494;DHT22;3788;49.902;8.590;2023-03-13T01:53:28;10.80;99.60
7494;DHT22;3788;49.902;8.590;2023-03-13T01:55:58;10.80;99.60
7494;DHT22;3788;49.902;8.590;2023-03-13T01:58:27;10.80;99.50
7494;DHT22;3788;49.902;8.590;2023-03-13T02:00:55;10.90;99.50
7494;DHT22;3788;49.902;8.590;2023-03-13T02:03:23;10.80;99.60
7494;DHT22;3788;49.902;8.590;2023-03-13T02:05:51;10.80;99.60
7494;DHT22;3788;49.902;8.590;2023-03-13T02:08:21;10.80;99.60
7494;DHT22;3788;49.902;8.590;2023-03-13T02:10:50;10.80;99.50
7494;DHT22;3788;49.902;8.590;2023-03-13T02:13:19;10.80;99.50
7494;DHT22;3788;49.902;8.590;2023-03-13T02:15:46;10.80;99.50
7494;DHT22;3788;49.902;8.590;2023-03-13T02:18:14;10.90;99.40
7494;DHT22;3788;49.902;8.590;2023-03-13T02:20:41;10.90;99.70
7494;DHT22;3788;49.902;8.590;2023-03-13T02:23:13;10.90;99.90
7494;DHT22;3788;49.902;8.590;2023-03-13T02:25:44;10.80;99.90
7494;DHT22;3788;49.902;8.590;2023-03-13T02:28:14;10.80;99.90
7494;DHT22;3788;49.902;8.590;2023-03-13T02:30:43;10.80;99.90
7494;DHT22;3788;49.902;8.590;2023-03-13T02:33:12;10.80;99.90
7494;DHT22;3788;49.902;8.590;2023-03-13T02:35:41;10.80;99.90
7494;DHT22;3788;49.902;8.590;2023-03-13T02:38:10;10.80;99.90
7494;DHT22;3788;49.902;8.590;2023-03-13T02:40:40;10.80;99.90
7494;DHT22;3788;49.902;8.590;2023-03-13T02:43:13;10.80;99.90
7494;DHT22;3788;49.902;8.590;2023-03-13T02:45:41;10.80;99.90
7494;DHT22;3788;49.902;8.590;2023-03-13T02:48:08;10.80;99.90
7494;DHT22;3788;49.902;8.590;2023-03-13T02:50:36;10.80;99.90
7494;DHT22;3788;49.902;8.590;2023-03-13T02:53:04;10.80;99.90
7494;DHT22;3788;49.902;8.590;2023-03-13T02:55:37;10.80;99.90
7494;DHT22;3788;49.902;8.590;2023-03-13T02:58:05;10.70;99.90
7494;DHT22;3788;49.902;8.590;2023-03-13T03:00:33;10.70;99.90
7494;DHT22;3788;49.902;8.590;2023-03-13T03:03:00;10.70;99.90
7494;DHT22;3788;49.902;8.590;2023-03-13T03:05:27;10.70;99.90
7494;DHT22;3788;49.902;8.590;2023-03-13T03:07:53;10.60;99.90
7494;DHT22;3788;49.902;8.590;2023-03-13T03:10:20;10.60;99.90
7494;DHT22;3788;49.902;8.590;2023-03-13T03:12:47;10.60;99.90
7494;DHT22;3788;49.902;8.590;2023-03-13T03:15:13;10.60;99.90
7494;DHT22;3788;49.902;8.590;2023-03-13T03:17:41;10.50;99.90
7494;DHT22;3788;49.902;8.590;2023-03-13T03:20:09;10.50;99.90
7494;DHT22;3788;49.902;8.590;2023-03-13T03:22:36;10.50;99.90
7494;DHT22;3788;49.902;8.590;2023-03-13T03:25:06;10.50;99.90
7494;DHT22;3788;49.902;8.590;2023-03-13T03:27:33;10.50;99.90
7494;DHT22;3788;49.902;8.590;2023-03-13T03:30:00;10.50;99.90
7494;DHT22;3788;49.902;8.590;2023-03-13T03:32:27;10.50;99.90
7494;DHT22;3788;49.902;8.590;2023-03-13T03:34:55;10.50;99.90
7494;DHT22;3788;49.902;8.590;2023-03-13T03:37:22;10.50;99.90
7494;DHT22;3788;49.902;8.590;2023-03-13T03:39:49;10.50;99.90
7494;DHT22;3788;49.902;8.590;2023-03-13T03:42:15;10.50;99.90
7494;DHT22;3788;49.902;8.590;2023-03-13T03:44:42;10.40;99.90
7494;DHT22;3788;49.902;8.590;2023-03-13T03:47:09;10.40;99.90
7494;DHT22;3788;49.902;8.590;2023-03-13T03:49:35;10.30;99.90
7494;DHT22;3788;49.902;8.590;2023-03-13T03:52:04;10.30;99.90
7494;DHT22;3788;49.902;8.590;2023-03-13T03:54:31;10.20;99.90
7494;DHT22;3788;49.902;8.590;2023-03-13T03:56:58;10.20;99.90
7494;DHT22;3788;49.902;8.590;2023-03-13T03:59:25;10.20;99.90
7494;DHT22;3788;49.902;8.590;2023-03-13T04:01:51;10.10;99.90
7494;DHT22;3788;49.902;8.590;2023-03-13T04:04:18;10.10;99.90
7494;DHT22;3788;49.902;8.590;2023-03-13T04:06:45;10.10;99.90
7494;DHT22;3788;49.902;8.590;2023-03-13T04:09:13;10.00;99.90
7494;DHT22;3788;49.902;8.590;2023-03-13T04:11:39;10.00;99.90
7494;DHT22;3788;49.902;8.590;2023-03-13T04:14:06;10.00;99.90
7494;DHT22;3788;49.902;8.590;2023-03-13T04:16:33;10.00;99.90
7494;DHT22;3788;49.902;8.590;2023-03-13T04:18:59;10.00;99.90
7494;DHT22;3788;49.902;8.590;2023-03-13T04:21:26;10.00;99.90
7494;DHT22;3788;49.902;8.590;2023-03-13T04:23:53;10.00;99.90
7494;DHT22;3788;49.902;8.590;2023-03-13T04:26:21;10.00;99.90
7494;DHT22;3788;49.902;8.590;2023-03-13T04:28:48;10.00;99.90
7494;DHT22;3788;49.902;8.590;2023-03-13T04:31:14;10.00;99.90
7494;DHT22;3788;49.902;8.590;2023-03-13T04:33:41;10.10;99.90
7494;DHT22;3788;49.902;8.590;2023-03-13T04:36:08;10.10;99.90
7494;DHT22;3788;49.902;8.590;2023-03-13T04:38:35;10.20;99.90
7494;DHT22;3788;49.902;8.590;2023-03-13T04:41:01;10.20;99.90
7494;DHT22;3788;49.902;8.590;2023-03-13T04:43:30;10.20;99.90
7494;DHT22;3788;49.902;8.590;2023-03-13T04:45:56;10.30;99.90
7494;DHT22;3788;49.902;8.590;2023-03-13T04:48:23;10.30;99.90
7494;DHT22;3788;49.902;8.590;2023-03-13T04:50:50;10.30;99.90
7494;DHT22;3788;49.902;8.590;2023-03-13T04:53:17;10.40;99.90
7494;DHT22;3788;49.902;8.590;2023-03-13T04:55:43;10.40;99.90
7494;DHT22;3788;49.902;8.590;2023-03-13T04:58:11;10.40;99.90
7494;DHT22;3788;49.902;8.590;2023-03-13T05:00:40;10.40;99.90
7494;DHT22;3788;49.902;8.590;2023-03-13T05:03:07;10.40;99.90
7494;DHT22;3788;49.902;8.590;2023-03-13T05:05:34;10.40;99.90
7494;DHT22;3788;49.902;8.590;2023-03-13T05:08:01;10.50;99.90
7494;DHT22;3788;49.902;8.590;2023-03-13T05:10:27;10.50;99.90
7494;DHT22;3788;49.902;8.590;2023-03-13T05:12:54;10.50;99.90
7494;DHT22;3788;49.902;8.590;2023-03-13T05:15:21;10.50;99.90
7494;DHT22;3788;49.902;8.590;2023-03-13T05:17:49;10.50;99.90
7494;DHT22;3788;49.902;8.590;2023-03-13T05:20:15;10.50;99.90
7494;DHT22;3788;49.902;8.590;2023-03-13T05:22:42;10.50;99.90
7494;DHT22;3788;49.902;8.590;2023-03-13T05:25:09;10.60;99.90
7494;DHT22;3788;49.902;8.590;2023-03-13T05:27:36;10.60;99.90
7494;DHT22;3788;49.902;8.590;2023-03-13T05:30:03;10.60;99.90
7494;DHT22;3788;49.902;8.590;2023-03-13T05:32:30;10.60;99.90
7494;DHT22;3788;49.902;8.590;2023-03-13T05:34:58;10.60;99.90
7494;DHT22;3788;49.902;8.590;2023-03-13T05:37:25;10.60;99.90
7494;DHT22;3788;49.902;8.590;2023-03-13T05:39:51;10.60;99.90
7494;DHT22;3788;49.902;8.590;2023-03-13T05:42:18;10.70;99.90
7494;DHT22;3788;49.902;8.590;2023-03-13T05:44:45;10.70;99.90
7494;DHT22;3788;49.902;8.590;2023-03-13T05:47:11;10.70;99.90
7494;DHT22;3788;49.902;8.590;2023-03-13T05:49:38;10.70;99.90
7494;DHT22;3788;49.902;8.590;2023-03-13T05:52:06;10.70;99.90
7494;DHT22;3788;49.902;8.590;2023-03-13T05:54:33;10.70;99.90
7494;DHT22;3788;49.902;8.590;2023-03-13T05:57:01;10.70;99.90
7494;DHT22;3788;49.902;8.590;2023-03-13T05:59:27;10.70;99.90
7494;DHT22;3788;49.902;8.590;2023-03-13T06:01:54;10.70;99.90
7494;DHT22;3788;49.902;8.590;2023-03-13T06:04:21;10.70;99.90
7494;DHT22;3788;49.902;8.590;2023-03-13T06:06:47;10.70;99.90
7494;DHT22;3788;49.902;8.590;2023-03-13T06:09:15;10.70;99.90
7494;DHT22;3788;49.902;8.590;2023-03-13T06:11:42;10.70;99.90
7494;DHT22;3788;49.902;8.590;2023-03-13T06:14:08;10.80;99.90
7494;DHT22;3788;49.902;8.590;2023-03-13T06:16:35;10.80;99.90
7494;DHT22;3788;49.902;8.590;2023-03-13T06:19:02;10.80;99.90
7494;DHT22;3788;49.902;8.590;2023-03-13T06:21:29;10.80;99.90
7494;DHT22;3788;49.902;8.590;2023-03-13T06:23:56;10.90;99.90
7494;DHT22;3788;49.902;8.590;2023-03-13T06:26:24;10.90;99.90
7494;DHT22;3788;49.902;8.590;2023-03-13T06:28:51;10.90;99.90
7494;DHT22;3788;49.902;8.590;2023-03-13T06:31:17;10.90;99.90
7494;DHT22;3788;49.902;8.590;2023-03-13T06:33:44;10.90;99.90
7494;DHT22;3788;49.902;8.590;2023-03-13T06:36:11;10.90;99.90
7494;DHT22;3788;49.902;8.590;2023-03-13T06:38:38;10.90;99.90
7494;DHT22;3788;49.902;8.590;2023-03-13T06:41:05;10.90;99.90
7494;DHT22;3788;49.902;8.590;2023-03-13T06:43:33;11.00;99.90
7494;DHT22;3788;49.902;8.590;2023-03-13T06:46:02;11.00;99.90
7494;DHT22;3788;49.902;8.590;2023-03-13T06:48:29;11.10;99.90
7494;DHT22;3788;49.902;8.590;2023-03-13T06:50:56;11.10;99.90
7494;DHT22;3788;49.902;8.590;2023-03-13T06:53:23;11.20;99.90
7494;DHT22;3788;49.902;8.590;2023-03-13T06:55:50;11.30;99.90
7494;DHT22;3788;49.902;8.590;2023-03-13T06:58:17;11.30;99.90
7494;DHT22;3788;49.902;8.590;2023-03-13T07:00:45;11.40;99.90
7494;DHT22;3788;49.902;8.590;2023-03-13T07:03:12;11.50;99.90
7494;DHT22;3788;49.902;8.590;2023-03-13T07:05:39;11.70;99.90
7494;DHT22;3788;49.902;8.590;2023-03-13T07:08:06;11.80;99.90
7494;DHT22;3788;49.902;8.590;2023-03-13T07:10:33;11.90;99.90
7494;DHT22;3788;49.902;8.590;2023-03-13T07:12:59;12.00;99.90
7494;DHT22;3788;49.902;8.590;2023-03-13T07:15:26;12.10;99.90
7494;DHT22;3788;49.902;8.590;2023-03-13T07:17:56;12.10;99.90
7494;DHT22;3788;49.902;8.590;2023-03-13T07:20:22;12.20;99.90
7494;DHT22;3788;49.902;8.590;2023-03-13T07:22:52;12.20;99.90
7494;DHT22;3788;49.902;8.590;2023-03-13T07:25:19;12.30;99.90
7494;DHT22;3788;49.902;8.590;2023-03-13T07:27:49;12.30;99.90
7494;DHT22;3788;49.902;8.590;2023-03-13T07:30:17;12.30;99.90
7494;DHT22;3788;49.902;8.590;2023-03-13T07:32:44;12.30;99.90
7494;DHT22;3788;49.902;8.590;2023-03-13T07:35:12;12.40;99.90
7494;DHT22;3788;49.902;8.590;2023-03-13T07:37:39;12.40;99.90
7494;DHT22;3788;49.902;8.590;2023-03-13T07:40:06;12.40;99.90
7494;DHT22;3788;49.902;8.590;2023-03-13T07:42:33;12.40;99.90
7494;DHT22;3788;49.902;8.590;2023-03-13T07:45:00;12.50;99.90
7494;DHT22;3788;49.902;8.590;2023-03-13T07:47:27;12.50;99.90
7494;DHT22;3788;49.902;8.590;2023-03-13T07:49:54;12.50;99.90
7494;DHT22;3788;49.902;8.590;2023-03-13T07:52:22;12.50;99.90
7494;DHT22;3788;49.902;8.590;2023-03-13T07:54:50;12.50;99.90
7494;DHT22;3788;49.902;8.590;2023-03-13T07:57:17;12.50;99.90
7494;DHT22;3788;49.902;8.590;2023-03-13T07:59:43;12.50;99.90
7494;DHT22;3788;49.902;8.590;2023-03-13T08:02:11;12.50;99.90
7494;DHT22;3788;49.902;8.590;2023-03-13T08:04:40;12.60;99.90
7494;DHT22;3788;49.902;8.590;2023-03-13T08:07:07;12.60;99.90
7494;DHT22;3788;49.902;8.590;2023-03-13T08:09:36;12.70;99.90
7494;DHT22;3788;49.902;8.590;2023-03-13T08:12:03;12.80;99.90
7494;DHT22;3788;49.902;8.590;2023-03-13T08:14:30;12.90;99.90
7494;DHT22;3788;49.902;8.590;2023-03-13T08:16:56;12.90;99.90
7494;DHT22;3788;49.902;8.590;2023-03-13T08:19:23;13.00;99.90
7494;DHT22;3788;49.902;8.590;2023-03-13T08:21:50;13.10;99.90
7494;DHT22;3788;49.902;8.590;2023-03-13T08:24:16;13.20;99.90
7494;DHT22;3788;49.902;8.590;2023-03-13T08:26:45;13.30;99.90
7494;DHT22;3788;49.902;8.590;2023-03-13T08:29:13;13.40;99.90
7494;DHT22;3788;49.902;8.590;2023-03-13T08:31:43;13.40;99.90
7494;DHT22;3788;49.902;8.590;2023-03-13T08:34:12;13.50;99.90
7494;DHT22;3788;49.902;8.590;2023-03-13T08:36:40;13.50;99.90
7494;DHT22;3788;49.902;8.590;2023-03-13T08:39:10;13.50;99.90
7494;DHT22;3788;49.902;8.590;2023-03-13T08:41:37;13.50;99.90
7494;DHT22;3788;49.902;8.590;2023-03-13T08:44:07;13.50;99.90
7494;DHT22;3788;49.902;8.590;2023-03-13T08:46:36;13.50;99.90
7494;DHT22;3788;49.902;8.590;2023-03-13T08:49:04;13.50;99.90
7494;DHT22;3788;49.902;8.590;2023-03-13T08:51:32;13.50;99.90
7494;DHT22;3788;49.902;8.590;2023-03-13T08:54:00;13.50;99.90
7494;DHT22;3788;49.902;8.590;2023-03-13T08:56:28;13.60;99.90
7494;DHT22;3788;49.902;8.590;2023-03-13T08:58:56;13.60;99.90
7494;DHT22;3788;49.902;8.590;2023-03-13T09:01:27;13.60;99.90
7494;DHT22;3788;49.902;8.590;2023-03-13T09:03:54;13.60;99.90
7494;DHT22;3788;49.902;8.590;2023-03-13T09:06:21;13.60;99.90
7494;DHT22;3788;49.902;8.590;2023-03-13T09:08:48;13.60;99.90
7494;DHT22;3788;49.902;8.590;2023-03-13T09:11:17;13.60;99.90
7494;DHT22;3788;49.902;8.590;2023-03-13T09:13:45;13.60;99.90
7494;DHT22;3788;49.902;8.590;2023-03-13T09:16:13;13.60;99.90
7494;DHT22;3788;49.902;8.590;2023-03-13T09:18:42;13.60;99.90
7494;DHT22;3788;49.902;8.590;2023-03-13T09:21:12;13.60;99.90
7494;DHT22;3788;49.902;8.590;2023-03-13T09:23:39;13.70;99.90
7494;DHT22;3788;49.902;8.590;2023-03-13T09:26:06;13.60;99.90
7494;DHT22;3788;49.902;8.590;2023-03-13T09:28:33;13.70;99.90
7494;DHT22;3788;49.902;8.590;2023-03-13T09:31:06;13.70;99.90
7494;DHT22;3788;49.902;8.590;2023-03-13T09:33:33;13.70;99.90
7494;DHT22;3788;49.902;8.590;2023-03-13T09:36:01;13.80;99.90
7494;DHT22;3788;49.902;8.590;2023-03-13T09:38:28;13.80;99.90
7494;DHT22;3788;49.902;8.590;2023-03-13T09:41:02;13.80;99.90
7494;DHT22;3788;49.902;8.590;2023-03-13T09:43:38;13.90;99.90
7494;DHT22;3788;49.902;8.590;2023-03-13T09:46:12;13.90;99.90
7494;DHT22;3788;49.902;8.590;2023-03-13T09:48:44;13.90;99.90
7494;DHT22;3788;49.902;8.590;2023-03-13T09:51:17;14.00;99.90
7494;DHT22;3788;49.902;8.590;2023-03-13T09:53:48;14.00;99.90
7494;DHT22;3788;49.902;8.590;2023-03-13T09:56:20;14.00;99.90
7494;DHT22;3788;49.902;8.590;2023-03-13T09:58:52;14.10;99.90
7494;DHT22;3788;49.902;8.590;2023-03-13T10:01:23;14.10;99.90
7494;DHT22;3788;49.902;8.590;2023-03-13T10:04:01;14.10;99.90
7494;DHT22;3788;49.902;8.590;2023-03-13T10:06:34;14.20;99.90
7494;DHT22;3788;49.902;8.590;2023-03-13T10:09:01;14.30;99.90
7494;DHT22;3788;49.902;8.590;2023-03-13T10:11:31;14.60;99.90
7494;DHT22;3788;49.902;8.590;2023-03-13T10:14:06;15.00;99.90
7494;DHT22;3788;49.902;8.590;2023-03-13T10:16:40;15.70;99.90
7494;DHT22;3788;49.902;8.590;2023-03-13T10:19:11;16.10;99.90
7494;DHT22;3788;49.902;8.590;2023-03-13T10:21:42;16.30;99.90
7494;DHT22;3788;49.902;8.590;2023-03-13T10:24:15;16.30;99.90
7494;DHT22;3788;49.902;8.590;2023-03-13T10:26:43;16.10;99.90
7494;DHT22;3788;49.902;8.590;2023-03-13T10:29:20;15.90;99.90
7494;DHT22;3788;49.902;8.590;2023-03-13T10:31:54;15.60;99.90
7494;DHT22;3788;49.902;8.590;2023-03-13T10:34:22;15.40;99.90
7494;DHT22;3788;49.902;8.590;2023-03-13T10:36:57;15.30;99.90
7494;DHT22;3788;49.902;8.590;2023-03-13T10:39:27;15.20;99.90
7494;DHT22;3788;49.902;8.590;2023-03-13T10:41:58;15.10;99.90
7494;DHT22;3788;49.902;8.590;2023-03-13T10:44:34;15.00;99.90
7494;DHT22;3788;49.902;8.590;2023-03-13T10:47:01;15.00;99.90
7494;DHT22;3788;49.902;8.590;2023-03-13T10:49:30;15.00;99.90
7494;DHT22;3788;49.902;8.590;2023-03-13T10:52:00;14.90;99.90
7494;DHT22;3788;49.902;8.590;2023-03-13T10:54:29;15.00;99.90
7494;DHT22;3788;49.902;8.590;2023-03-13T10:57:23;14.90;99.90
7494;DHT22;3788;49.902;8.590;2023-03-13T10:59:53;14.90;99.90
7494;DHT22;3788;49.902;8.590;2023-03-13T11:02:22;14.90;99.90
7494;DHT22;3788;49.902;8.590;2023-03-13T11:04:51;14.90;99.90
7494;DHT22;3788;49.902;8.590;2023-03-13T11:07:25;15.00;99.90
7494;DHT22;3788;49.902;8.590;2023-03-13T11:10:01;15.00;99.90
7494;DHT22;3788;49.902;8.590;2023-03-13T11:12:32;15.00;99.90
7494;DHT22;3788;49.902;8.590;2023-03-13T11:15:01;15.00;99.90
7494;DHT22;3788;49.902;8.590;2023-03-13T11:17:33;15.10;99.90
7494;DHT22;3788;49.902;8.590;2023-03-13T11:20:11;15.10;99.90
7494;DHT22;3788;49.902;8.590;2023-03-13T11:22:54;15.20;99.90
7494;DHT22;3788;49.902;8.590;2023-03-13T11:25:30;15.30;99.90
7494;DHT22;3788;49.902;8.590;2023-03-13T11:28:14;15.40;99.90
7494;DHT22;3788;49.902;8.590;2023-03-13T11:30:49;15.50;99.90
7494;DHT22;3788;49.902;8.590;2023-03-13T11:33:28;15.60;99.90
7494;DHT22;3788;49.902;8.590;2023-03-13T11:36:00;15.80;99.90
7494;DHT22;3788;49.902;8.590;2023-03-13T11:38:32;15.90;99.90
7494;DHT22;3788;49.902;8.590;2023-03-13T11:41:07;16.00;99.90
7494;DHT22;3788;49.902;8.590;2023-03-13T11:43:44;16.10;99.90
7494;DHT22;3788;49.902;8.590;2023-03-13T11:46:27;16.10;99.90
7494;DHT22;3788;49.902;8.590;2023-03-13T11:51:57;16.30;99.90
7494;DHT22;3788;49.902;8.590;2023-03-13T11:54:57;16.40;99.90
7494;DHT22;3788;49.902;8.590;2023-03-13T11:57:27;16.50;99.90
7494;DHT22;3788;49.902;8.590;2023-03-13T12:00:16;16.50;99.90
7494;DHT22;3788;49.902;8.590;2023-03-13T12:02:47;16.50;99.90
7494;DHT22;3788;49.902;8.590;2023-03-13T12:05:18;16.50;99.90
7494;DHT22;3788;49.902;8.590;2023-03-13T12:07:49;16.50;99.90
7494;DHT22;3788;49.902;8.590;2023-03-13T12:10:23;16.50;99.90
7494;DHT22;3788;49.902;8.590;2023-03-13T12:12:58;16.50;99.90
7494;DHT22;3788;49.902;8.590;2023-03-13T12:15:29;16.50;99.90
7494;DHT22;3788;49.902;8.590;2023-03-13T12:18:00;16.60;99.90
7494;DHT22;3788;49.902;8.590;2023-03-13T12:20:33;16.60;99.90
7494;DHT22;3788;49.902;8.590;2023-03-13T12:23:16;16.70;99.90
7494;DHT22;3788;49.902;8.590;2023-03-13T12:25:48;16.70;99.90
7494;DHT22;3788;49.902;8.590;2023-03-13T12:28:28;16.80;99.90
7494;DHT22;3788;49.902;8.590;2023-03-13T12:31:03;16.90;99.60
7494;DHT22;3788;49.902;8.590;2023-03-13T12:33:35;17.10;99.60
7494;DHT22;3788;49.902;8.590;2023-03-13T12:36:10;17.30;99.50
7494;DHT22;3788;49.902;8.590;2023-03-13T12:38:40;17.40;99.20
7494;DHT22;3788;49.902;8.590;2023-03-13T12:41:18;17.50;98.80
7494;DHT22;3788;49.902;8.590;2023-03-13T12:43:49;17.50;98.10
7494;DHT22;3788;49.902;8.590;2023-03-13T12:46:36;17.40;98.00
7494;DHT22;3788;49.902;8.590;2023-03-13T12:52:31;17.30;98.30
7494;DHT22;3788;49.902;8.590;2023-03-13T12:55:21;17.30;98.10
7494;DHT22;3788;49.902;8.590;2023-03-13T12:58:12;17.30;98.20
7494;DHT22;3788;49.902;8.590;2023-03-13T13:00:45;17.30;98.40
7494;DHT22;3788;49.902;8.590;2023-03-13T13:03:25;17.20;98.60
7494;DHT22;3788;49.902;8.590;2023-03-13T13:06:03;17.20;98.80
7494;DHT22;3788;49.902;8.590;2023-03-13T13:08:34;17.10;98.70
7494;DHT22;3788;49.902;8.590;2023-03-13T13:17:46;17.30;98.70
7494;DHT22;3788;49.902;8.590;2023-03-13T13:20:47;17.40;98.60
7494;DHT22;3788;49.902;8.590;2023-03-13T13:23:32;17.50;98.30
7494;DHT22;3788;49.902;8.590;2023-03-13T13:35:27;17.80;97.50
7494;DHT22;3788;49.902;8.590;2023-03-13T13:38:27;17.90;97.30
7494;DHT22;3788;49.902;8.590;2023-03-13T13:41:00;18.10;97.10
7494;DHT22;3788;49.902;8.590;2023-03-13T13:43:30;18.20;97.00
7494;DHT22;3788;49.902;8.590;2023-03-13T13:46:00;18.30;96.90
7494;DHT22;3788;49.902;8.590;2023-03-13T13:48:32;18.50;97.00
7494;DHT22;3788;49.902;8.590;2023-03-13T13:51:23;18.70;95.30
7494;DHT22;3788;49.902;8.590;2023-03-13T13:53:55;18.80;94.60
7494;DHT22;3788;49.902;8.590;2023-03-13T13:56:39;18.80;94.50
7494;DHT22;3788;49.902;8.590;2023-03-13T13:59:38;18.90;94.40
7494;DHT22;3788;49.902;8.590;2023-03-13T14:02:29;18.90;94.10
7494;DHT22;3788;49.902;8.590;2023-03-13T14:05:16;18.90;94.30
7494;DHT22;3788;49.902;8.590;2023-03-13T14:07:49;19.00;94.60
7494;DHT22;3788;49.902;8.590;2023-03-13T14:10:30;19.10;94.30
7494;DHT22;3788;49.902;8.590;2023-03-13T14:13:00;19.20;93.50
7494;DHT22;3788;49.902;8.590;2023-03-13T14:15:30;19.20;93.10
7494;DHT22;3788;49.902;8.590;2023-03-13T14:17:59;19.20;93.50
7494;DHT22;3788;49.902;8.590;2023-03-13T14:20:36;19.20;93.50
7494;DHT22;3788;49.902;8.590;2023-03-13T14:23:05;19.20;93.60
7494;DHT22;3788;49.902;8.590;2023-03-13T14:25:43;19.20;93.60
7494;DHT22;3788;49.902;8.590;2023-03-13T14:28:21;19.20;93.70
7494;DHT22;3788;49.902;8.590;2023-03-13T14:30:50;19.20;93.40
7494;DHT22;3788;49.902;8.590;2023-03-13T14:33:17;19.20;93.30
7494;DHT22;3788;49.902;8.590;2023-03-13T14:35:46;19.10;93.40
7494;DHT22;3788;49.902;8.590;2023-03-13T14:38:18;19.10;93.60
7494;DHT22;3788;49.902;8.590;2023-03-13T14:40:45;19.00;93.70
7494;DHT22;3788;49.902;8.590;2023-03-13T14:43:22;18.90;93.80
7494;DHT22;3788;49.902;8.590;2023-03-13T14:45:51;18.90;93.80
7494;DHT22;3788;49.902;8.590;2023-03-13T14:48:20;18.80;93.70
7494;DHT22;3788;49.902;8.590;2023-03-13T14:50:59;18.70;93.80
7494;DHT22;3788;49.902;8.590;2023-03-13T14:53:26;18.70;94.00
7494;DHT22;3788;49.902;8.590;2023-03-13T14:56:09;18.60;94.30
7494;DHT22;3788;49.902;8.590;2023-03-13T14:58:36;18.60;94.20
7494;DHT22;3788;49.902;8.590;2023-03-13T15:01:18;18.60;94.40
7494;DHT22;3788;49.902;8.590;2023-03-13T15:03:47;18.50;94.50
7494;DHT22;3788;49.902;8.590;2023-03-13T15:06:22;18.50;94.60
7494;DHT22;3788;49.902;8.590;2023-03-13T15:09:15;18.40;94.70
7494;DHT22;3788;49.902;8.590;2023-03-13T15:11:51;18.30;94.90
7494;DHT22;3788;49.902;8.590;2023-03-13T15:14:32;18.20;94.90
7494;DHT22;3788;49.902;8.590;2023-03-13T15:16:59;18.20;95.00
7494;DHT22;3788;49.902;8.590;2023-03-13T15:19:26;18.10;95.10
7494;DHT22;3788;49.902;8.590;2023-03-13T15:21:54;18.10;94.90
7494;DHT22;3788;49.902;8.590;2023-03-13T15:24:21;18.10;94.90
7494;DHT22;3788;49.902;8.590;2023-03-13T15:26:50;18.10;95.00
7494;DHT22;3788;49.902;8.590;2023-03-13T15:29:16;18.10;94.90
7494;DHT22;3788;49.902;8.590;2023-03-13T15:31:44;18.00;94.60
7494;DHT22;3788;49.902;8.590;2023-03-13T15:34:12;18.10;94.50
7494;DHT22;3788;49.902;8.590;2023-03-13T15:36:40;18.10;94.30
7494;DHT22;3788;49.902;8.590;2023-03-13T15:39:13;18.10;93.60
7494;DHT22;3788;49.902;8.590;2023-03-13T15:41:40;18.00;93.80
7494;DHT22;3788;49.902;8.590;2023-03-13T15:44:07;17.80;94.70
7494;DHT22;3788;49.902;8.590;2023-03-13T15:46:34;17.40;96.50
7494;DHT22;3788;49.902;8.590;2023-03-13T15:49:01;16.50;99.40
7494;DHT22;3788;49.902;8.590;2023-03-13T15:51:28;15.40;99.90
7494;DHT22;3788;49.902;8.590;2023-03-13T15:53:56;14.50;99.90
7494;DHT22;3788;49.902;8.590;2023-03-13T15:56:24;13.80;99.90
7494;DHT22;3788;49.902;8.590;2023-03-13T15:58:55;13.30;99.90
7494;DHT22;3788;49.902;8.590;2023-03-13T16:01:22;13.00;99.90
7494;DHT22;3788;49.902;8.590;2023-03-13T16:03:48;12.80;99.90
7494;DHT22;3788;49.902;8.590;2023-03-13T16:06:16;12.60;99.90
7494;DHT22;3788;49.902;8.590;2023-03-13T16:08:45;12.50;99.90
7494;DHT22;3788;49.902;8.590;2023-03-13T16:11:13;12.40;99.90
7494;DHT22;3788;49.902;8.590;2023-03-13T16:13:42;12.30;99.90
7494;DHT22;3788;49.902;8.590;2023-03-13T16:16:18;12.30;99.90
7494;DHT22;3788;49.902;8.590;2023-03-13T16:18:46;12.30;99.90
7494;DHT22;3788;49.902;8.590;2023-03-13T16:21:16;12.30;99.90
7494;DHT22;3788;49.902;8.590;2023-03-13T16:23:44;12.40;99.90
7494;DHT22;3788;49.902;8.590;2023-03-13T16:26:13;12.30;99.90
7494;DHT22;3788;49.902;8.590;2023-03-13T16:28:42;12.30;99.90
7494;DHT22;3788;49.902;8.590;2023-03-13T16:31:15;12.30;99.90
7494;DHT22;3788;49.902;8.590;2023-03-13T16:33:42;12.30;99.90
7494;DHT22;3788;49.902;8.590;2023-03-13T16:36:13;12.30;99.90
7494;DHT22;3788;49.902;8.590;2023-03-13T16:38:40;12.20;99.90
7494;DHT22;3788;49.902;8.590;2023-03-13T16:41:08;12.20;99.90
7494;DHT22;3788;49.902;8.590;2023-03-13T16:43:37;12.30;99.90